Time;durP1;ratioP1;P1;durP2;ratioP2;P2;SDS_P1;SDS_P2;PMS_P1;PMS_P2;Temp;Humidity;BMP_temperature;BMP_pressure;BME280_temperature;BME280_humidity;BME280_pressure;Samples;Min_cycle;Max_cycle;Signal;HPM_P1;HPM_P2
2022/05/31 00:01:52;;;;;;;7.28;4.28;;;9.30;99.90;;;;;;5018788;28;20044;-61
2022/05/31 00:04:18;;;;;;;10.32;4.28;;;9.30;99.90;;;;;;5018795;28;20546;-61
2022/05/31 00:06:44;;;;;;;7.57;4.03;;;9.30;99.90;;;;;;5016695;28;20120;-61
2022/05/31 00:09:10;;;;;;;6.13;3.20;;;9.30;99.90;;;;;;5027801;28;20044;-60
2022/05/31 00:11:36;;;;;;;9.00;4.07;;;9.30;99.90;;;;;;5011727;28;20072;-59
2022/05/31 00:14:03;;;;;;;7.10;3.78;;;9.30;99.90;;;;;;5029927;28;20072;-60
2022/05/31 00:16:28;;;;;;;6.43;3.55;;;9.30;99.90;;;;;;4994876;28;20083;-59
2022/05/31 00:18:54;;;;;;;7.20;3.67;;;9.30;99.90;;;;;;5024132;28;20018;-60
2022/05/31 00:21:20;;;;;;;7.85;3.95;;;9.30;99.90;;;;;;4990372;28;20401;-60
2022/05/31 00:23:46;;;;;;;11.35;3.78;;;9.20;99.90;;;;;;4997821;28;20076;-60
2022/05/31 00:26:11;;;;;;;9.35;3.10;;;9.10;99.90;;;;;;5021603;28;20573;-61
2022/05/31 00:28:37;;;;;;;9.45;3.20;;;9.10;99.90;;;;;;5030223;28;20036;-61
2022/05/31 00:31:03;;;;;;;8.45;3.55;;;9.10;99.90;;;;;;5027737;28;20037;-61
2022/05/31 00:33:30;;;;;;;13.77;3.72;;;9.20;99.90;;;;;;5025936;28;20033;-60
2022/05/31 00:35:55;;;;;;;6.53;3.15;;;9.20;99.90;;;;;;5026451;28;20175;-62
2022/05/31 00:38:22;;;;;;;10.52;3.38;;;9.20;99.90;;;;;;5027379;28;20841;-61
2022/05/31 00:40:47;;;;;;;6.47;3.20;;;9.30;99.90;;;;;;5030207;28;20391;-61
2022/05/31 00:43:22;;;;;;;6.03;3.15;;;9.30;99.90;;;;;;5025884;28;20029;-60
2022/05/31 00:46:03;;;;;;;4.60;3.00;;;9.40;99.90;;;;;;5026641;28;20032;-61
2022/05/31 00:48:38;;;;;;;17.13;4.07;;;9.40;99.90;;;;;;5027997;28;20096;-61
2022/05/31 00:51:08;;;;;;;7.00;2.90;;;9.30;99.90;;;;;;5026427;28;20029;-60
2022/05/31 00:53:39;;;;;;;7.93;3.58;;;9.40;99.90;;;;;;5028509;28;20439;-60
2022/05/31 00:56:10;;;;;;;6.82;2.97;;;9.40;99.90;;;;;;5003663;28;20037;-60
2022/05/31 00:58:41;;;;;;;7.97;3.30;;;9.40;99.90;;;;;;5008653;28;20018;-60
2022/05/31 01:01:10;;;;;;;7.65;3.05;;;9.40;99.90;;;;;;5026682;28;20037;-60
2022/05/31 01:03:39;;;;;;;9.30;4.80;;;9.40;99.90;;;;;;5012172;28;20021;-61
2022/05/31 01:06:11;;;;;;;7.72;2.90;;;9.40;99.90;;;;;;5055902;27;20423;-59
2022/05/31 01:08:44;;;;;;;7.50;3.08;;;9.40;99.90;;;;;;5061342;28;20029;-60
2022/05/31 01:11:10;;;;;;;7.13;3.10;;;9.50;99.90;;;;;;5058217;28;20029;-61
2022/05/31 01:13:36;;;;;;;4.90;2.45;;;9.50;99.90;;;;;;5014538;28;20052;-59
2022/05/31 01:16:04;;;;;;;5.45;2.40;;;9.50;99.90;;;;;;5019696;28;20025;-59
2022/05/31 01:18:30;;;;;;;7.03;3.10;;;9.50;99.90;;;;;;5019524;28;20036;-61
2022/05/31 01:20:56;;;;;;;9.40;2.95;;;9.60;99.90;;;;;;5023344;28;20399;-61
2022/05/31 01:23:23;;;;;;;7.20;2.95;;;9.60;99.90;;;;;;5019883;28;20081;-60
2022/05/31 01:26:16;;;;;;;7.80;3.03;;;9.60;99.90;;;;;;5024915;28;20121;-61
2022/05/31 01:29:08;;;;;;;8.20;2.80;;;9.60;99.90;;;;;;5028873;28;20021;-60
2022/05/31 01:31:40;;;;;;;6.75;2.85;;;9.50;99.90;;;;;;5017224;28;20515;-60
2022/05/31 01:34:15;;;;;;;7.60;2.90;;;9.50;99.90;;;;;;5020193;28;20037;-59
2022/05/31 01:36:47;;;;;;;4.45;2.40;;;9.60;99.90;;;;;;5024542;28;20025;-60
2022/05/31 01:39:21;;;;;;;6.45;3.08;;;9.60;99.90;;;;;;5023684;28;20061;-59
2022/05/31 01:42:00;;;;;;;8.43;3.38;;;9.50;99.90;;;;;;5018588;28;20025;-61
2022/05/31 01:44:32;;;;;;;5.75;3.47;;;9.40;99.90;;;;;;5020092;28;20046;-61
2022/05/31 01:47:00;;;;;;;8.40;3.05;;;9.40;99.90;;;;;;5021523;28;20560;-61
2022/05/31 01:49:30;;;;;;;5.72;2.45;;;9.40;99.90;;;;;;5016741;28;20120;-60
2022/05/31 01:51:58;;;;;;;9.85;3.10;;;9.40;99.90;;;;;;5017480;28;20399;-61
2022/05/31 01:54:24;;;;;;;5.95;2.80;;;9.40;99.90;;;;;;5015431;28;20117;-60
2022/05/31 01:56:55;;;;;;;4.45;2.25;;;9.40;99.90;;;;;;5021631;28;20059;-61
2022/05/31 01:59:22;;;;;;;9.63;2.70;;;9.40;99.90;;;;;;5018504;28;20025;-61
2022/05/31 02:01:48;;;;;;;6.82;2.75;;;9.40;99.90;;;;;;5023103;28;20030;-61
2022/05/31 02:04:16;;;;;;;4.63;2.25;;;9.40;99.90;;;;;;5018140;28;20041;-60
2022/05/31 02:06:42;;;;;;;6.60;2.30;;;9.50;99.90;;;;;;5016829;28;20541;-60
2022/05/31 02:09:11;;;;;;;7.35;2.33;;;9.50;99.90;;;;;;5019042;28;20057;-58
2022/05/31 02:11:38;;;;;;;4.55;1.92;;;9.50;99.90;;;;;;5015586;28;20053;-61
2022/05/31 02:14:05;;;;;;;5.88;2.60;;;9.50;99.90;;;;;;5000171;28;20062;-60
2022/05/31 02:16:31;;;;;;;6.93;2.08;;;9.50;99.90;;;;;;5010446;28;20026;-60
2022/05/31 02:21:41;;;;;;;4.43;1.90;;;9.50;99.90;;;;;;5007063;28;20101;-58
2022/05/31 02:24:10;;;;;;;5.53;2.22;;;9.60;99.90;;;;;;5003856;28;20034;-59
2022/05/31 02:26:37;;;;;;;8.85;2.33;;;9.70;99.90;;;;;;5007149;28;20026;-60
2022/05/31 02:29:03;;;;;;;5.82;2.20;;;9.70;99.90;;;;;;5009227;28;20113;-61
2022/05/31 02:31:30;;;;;;;6.47;2.85;;;9.70;99.90;;;;;;5007095;28;21899;-60
2022/05/31 02:33:56;;;;;;;4.65;2.17;;;9.70;99.90;;;;;;5000840;28;20075;-59
2022/05/31 02:36:22;;;;;;;4.22;2.13;;;9.80;99.90;;;;;;5004163;28;20491;-60
2022/05/31 02:38:47;;;;;;;8.52;3.35;;;9.70;99.90;;;;;;4988605;28;20033;-59
2022/05/31 02:41:13;;;;;;;4.68;2.20;;;9.70;99.90;;;;;;5007487;28;20117;-60
2022/05/31 02:43:39;;;;;;;3.95;2.00;;;9.70;99.90;;;;;;5005817;28;20076;-61
2022/05/31 02:46:04;;;;;;;4.53;2.05;;;9.80;99.90;;;;;;5005732;28;20037;-59
2022/05/31 02:48:31;;;;;;;7.72;2.10;;;9.80;99.90;;;;;;5004807;28;20030;-57
2022/05/31 02:50:57;;;;;;;8.20;2.28;;;9.80;99.90;;;;;;4999743;28;20477;-61
2022/05/31 02:53:22;;;;;;;3.63;1.98;;;9.80;99.90;;;;;;5004528;28;20038;-60
2022/05/31 02:55:48;;;;;;;4.22;2.08;;;9.80;99.90;;;;;;5004680;28;20046;-59
2022/05/31 02:58:14;;;;;;;6.50;2.45;;;9.80;99.90;;;;;;5002403;28;20661;-61
2022/05/31 03:00:39;;;;;;;7.82;2.10;;;9.80;99.90;;;;;;5007803;28;20088;-60
2022/05/31 03:03:05;;;;;;;7.57;2.30;;;9.80;99.90;;;;;;5003707;28;20034;-60
2022/05/31 03:05:31;;;;;;;6.35;2.00;;;9.80;99.90;;;;;;5000449;28;20117;-60
2022/05/31 03:07:57;;;;;;;9.75;2.67;;;9.80;99.90;;;;;;5009533;28;20033;-60
2022/05/31 03:10:26;;;;;;;4.18;1.88;;;9.80;99.90;;;;;;5020661;28;20081;-60
2022/05/31 03:12:52;;;;;;;5.40;2.00;;;9.80;99.90;;;;;;4989040;28;20149;-59
2022/05/31 03:15:19;;;;;;;8.82;1.98;;;9.80;99.90;;;;;;5006433;28;20533;-59
2022/05/31 03:18:00;;;;;;;5.82;2.35;;;9.80;99.90;;;;;;4999491;28;20034;-58
2022/05/31 03:20:32;;;;;;;5.55;2.10;;;9.80;99.90;;;;;;5005089;28;20030;-61
2022/05/31 03:23:03;;;;;;;3.80;2.10;;;9.70;99.90;;;;;;5001977;28;20018;-60
2022/05/31 03:25:31;;;;;;;3.85;2.10;;;9.60;99.90;;;;;;4999221;28;20038;-60
2022/05/31 03:28:02;;;;;;;4.53;2.00;;;9.60;99.90;;;;;;4999988;28;20444;-60
2022/05/31 03:30:29;;;;;;;6.95;2.35;;;9.50;99.90;;;;;;4998117;28;20058;-59
2022/05/31 03:32:56;;;;;;;6.35;2.35;;;9.50;99.90;;;;;;5007184;28;20030;-60
2022/05/31 03:35:22;;;;;;;4.97;2.40;;;9.40;99.90;;;;;;5002920;28;20030;-60
2022/05/31 03:37:48;;;;;;;6.07;2.35;;;9.40;99.90;;;;;;5000821;28;20451;-60
2022/05/31 03:40:56;;;;;;;9.93;2.85;;;9.30;99.90;;;;;;4998972;28;20495;-61
2022/05/31 03:43:00;;;;;;;5.32;2.35;;;9.30;99.90;;;;;;5002736;28;20037;-60
2022/05/31 03:45:35;;;;;;;5.47;2.03;;;9.30;99.90;;;;;;5004267;28;20034;-60
2022/05/31 03:48:01;;;;;;;5.15;2.30;;;9.20;99.90;;;;;;5006122;28;20025;-60
2022/05/31 03:50:27;;;;;;;10.38;2.17;;;9.20;99.90;;;;;;5004607;28;20053;-61
2022/05/31 03:52:53;;;;;;;6.65;2.08;;;9.20;99.90;;;;;;5002981;28;20049;-61
2022/05/31 03:55:18;;;;;;;4.63;2.22;;;9.30;99.90;;;;;;4997803;28;21957;-61
2022/05/31 03:57:46;;;;;;;9.07;2.58;;;9.40;99.90;;;;;;5004381;28;20038;-61
2022/05/31 04:00:13;;;;;;;5.55;2.13;;;9.50;99.90;;;;;;5003009;28;20053;-61
2022/05/31 04:02:38;;;;;;;10.43;2.20;;;9.70;99.90;;;;;;5001995;28;20025;-61
2022/05/31 04:05:04;;;;;;;4.15;1.95;;;9.70;99.90;;;;;;5005732;28;20391;-61
2022/05/31 04:07:30;;;;;;;7.25;1.77;;;9.80;99.90;;;;;;5003171;28;20109;-60
2022/05/31 04:09:55;;;;;;;5.85;2.30;;;9.90;99.90;;;;;;5006464;28;20091;-61
2022/05/31 04:12:20;;;;;;;6.95;1.67;;;9.90;99.90;;;;;;5005039;28;21932;-61
2022/05/31 04:14:46;;;;;;;4.93;2.17;;;9.90;99.90;;;;;;4984712;28;20046;-60
2022/05/31 04:17:11;;;;;;;5.85;1.67;;;9.90;99.90;;;;;;5006402;28;20029;-60
2022/05/31 04:19:37;;;;;;;5.55;2.30;;;9.90;99.90;;;;;;4999293;28;20152;-59
2022/05/31 04:22:03;;;;;;;5.47;2.45;;;9.90;99.90;;;;;;5006723;28;20029;-60
2022/05/31 04:24:28;;;;;;;4.43;2.20;;;10.00;99.90;;;;;;5003886;28;20053;-61
2022/05/31 04:26:54;;;;;;;4.05;1.95;;;10.00;99.90;;;;;;5008402;28;20123;-60
2022/05/31 04:29:20;;;;;;;11.20;2.55;;;9.90;99.90;;;;;;5000160;28;20042;-59
2022/05/31 04:31:45;;;;;;;8.70;1.77;;;10.00;99.90;;;;;;5007859;28;20499;-61
2022/05/31 04:34:11;;;;;;;3.15;1.85;;;10.00;99.90;;;;;;5004774;28;20022;-58
2022/05/31 04:36:37;;;;;;;6.75;2.10;;;10.10;99.90;;;;;;5007178;28;20025;-60
2022/05/31 04:39:04;;;;;;;2.78;1.80;;;10.10;99.90;;;;;;5003132;28;20496;-61
2022/05/31 04:41:29;;;;;;;7.10;2.20;;;10.20;99.90;;;;;;5001497;28;20030;-61
2022/05/31 04:43:57;;;;;;;7.90;2.40;;;10.40;99.90;;;;;;5000225;28;20554;-60
2022/05/31 04:46:25;;;;;;;4.97;1.85;;;10.60;99.90;;;;;;5000651;28;20491;-60
2022/05/31 04:48:52;;;;;;;8.75;2.63;;;10.70;99.90;;;;;;4998861;28;20145;-60
2022/05/31 04:51:18;;;;;;;8.13;2.10;;;10.80;99.90;;;;;;5001925;28;20022;-60
2022/05/31 04:53:44;;;;;;;5.15;2.00;;;10.80;99.90;;;;;;5000849;28;20029;-61
2022/05/31 04:56:13;;;;;;;4.70;2.22;;;10.90;99.90;;;;;;5003067;28;20237;-61
2022/05/31 04:58:39;;;;;;;3.35;1.75;;;11.00;99.90;;;;;;4998228;28;20577;-60
2022/05/31 05:01:08;;;;;;;4.13;1.67;;;11.10;99.90;;;;;;5000931;28;20552;-61
2022/05/31 05:03:37;;;;;;;5.15;1.85;;;11.20;99.90;;;;;;5006527;28;20028;-60
2022/05/31 05:06:06;;;;;;;6.82;1.88;;;11.40;99.90;;;;;;5001012;28;20034;-59
2022/05/31 05:08:32;;;;;;;7.03;1.73;;;11.50;99.90;;;;;;5000714;28;20030;-61
2022/05/31 05:11:06;;;;;;;4.43;2.40;;;11.60;99.90;;;;;;5002338;28;20032;-59
2022/05/31 05:13:32;;;;;;;4.00;1.50;;;11.70;99.90;;;;;;4982913;28;20496;-61
2022/05/31 05:15:59;;;;;;;5.47;2.15;;;11.60;99.90;;;;;;4979586;28;20515;-60
2022/05/31 05:18:26;;;;;;;4.00;1.52;;;11.60;99.90;;;;;;4981493;28;20033;-61
2022/05/31 05:20:52;;;;;;;6.78;2.03;;;11.70;99.90;;;;;;4982308;28;20034;-60
2022/05/31 05:23:18;;;;;;;4.25;1.60;;;11.70;99.90;;;;;;4982804;28;20046;-61
2022/05/31 05:25:52;;;;;;;12.32;2.10;;;11.60;99.90;;;;;;4982597;28;20062;-60
2022/05/31 05:31:03;;;;;;;10.60;1.90;;;11.50;99.90;;;;;;4984756;28;20494;-60
2022/05/31 05:33:29;;;;;;;2.47;1.42;;;11.70;99.90;;;;;;4986909;28;20032;-60
2022/05/31 05:35:55;;;;;;;5.32;1.52;;;11.60;99.90;;;;;;4984904;28;20034;-61
2022/05/31 05:38:20;;;;;;;8.85;1.80;;;11.70;99.90;;;;;;4987458;28;20040;-61
2022/05/31 05:40:46;;;;;;;3.10;1.63;;;11.70;99.90;;;;;;4986292;28;20031;-61
2022/05/31 05:43:13;;;;;;;7.20;1.70;;;11.80;99.90;;;;;;4988195;28;20042;-61
2022/05/31 05:45:38;;;;;;;3.90;1.58;;;11.90;99.90;;;;;;4983814;28;20033;-59
2022/05/31 05:48:05;;;;;;;2.63;1.58;;;12.00;99.90;;;;;;4984053;28;20054;-61
2022/05/31 05:50:32;;;;;;;4.25;1.75;;;12.20;99.90;;;;;;4982626;28;20089;-61
2022/05/31 05:53:02;;;;;;;5.97;2.47;;;12.30;99.90;;;;;;4985488;28;20109;-61
2022/05/31 05:55:27;;;;;;;4.70;1.88;;;12.30;99.90;;;;;;4990004;28;20022;-61
2022/05/31 05:57:54;;;;;;;5.63;1.80;;;12.40;99.90;;;;;;4988339;28;20033;-61
2022/05/31 06:00:21;;;;;;;3.90;1.77;;;12.60;99.90;;;;;;4990246;28;20097;-61
2022/05/31 06:02:52;;;;;;;8.55;1.65;;;13.00;99.90;;;;;;4988147;28;20042;-61
2022/05/31 06:05:25;;;;;;;5.18;2.17;;;13.60;98.10;;;;;;4987364;28;20045;-60
2022/05/31 06:08:05;;;;;;;4.00;1.33;;;13.70;97.60;;;;;;4989371;28;20531;-61
2022/05/31 06:10:41;;;;;;;4.28;1.70;;;13.90;97.40;;;;;;4989239;28;20041;-60
2022/05/31 06:13:18;;;;;;;2.88;1.80;;;13.90;97.90;;;;;;4990073;28;20379;-59
2022/05/31 06:15:49;;;;;;;7.07;2.00;;;14.60;99.00;;;;;;4972238;28;20046;-61
2022/05/31 06:18:20;;;;;;;4.18;1.88;;;15.40;97.20;;;;;;4987093;28;20094;-61
2022/05/31 06:20:49;;;;;;;5.47;1.77;;;16.10;95.00;;;;;;4988696;28;20113;-61
2022/05/31 06:23:15;;;;;;;6.80;2.03;;;16.10;94.40;;;;;;4990807;28;20038;-61
2022/05/31 06:25:41;;;;;;;3.67;1.58;;;16.50;93.80;;;;;;4988820;28;20121;-62
2022/05/31 06:28:07;;;;;;;6.13;2.30;;;17.10;92.40;;;;;;4989442;28;20026;-61
2022/05/31 06:30:33;;;;;;;4.15;1.60;;;18.10;90.90;;;;;;4990198;28;20500;-61
2022/05/31 06:32:58;;;;;;;3.22;1.38;;;17.90;87.90;;;;;;4987510;28;20058;-61
2022/05/31 06:35:24;;;;;;;6.45;1.48;;;17.40;90.30;;;;;;4989424;28;20458;-61
2022/05/31 06:37:50;;;;;;;5.88;1.50;;;18.00;88.80;;;;;;4987314;28;20018;-60
2022/05/31 06:40:16;;;;;;;3.83;1.70;;;19.30;89.10;;;;;;4989940;28;20054;-60
2022/05/31 06:42:41;;;;;;;6.40;2.15;;;20.60;81.10;;;;;;4987354;28;20046;-61
2022/05/31 06:45:07;;;;;;;5.82;1.83;;;22.10;76.20;;;;;;4985867;28;20038;-61
2022/05/31 06:47:33;;;;;;;5.00;2.10;;;22.50;72.00;;;;;;4979265;28;20086;-60
2022/05/31 06:49:58;;;;;;;4.72;1.80;;;21.30;72.60;;;;;;4982470;28;20109;-62
2022/05/31 06:57:53;;;;;;;3.40;1.60;;;19.20;77.70;;;;;;4989555;28;20108;-62
2022/05/31 07:00:20;;;;;;;4.80;1.70;;;18.30;81.70;;;;;;4985689;28;20447;-61
2022/05/31 07:02:47;;;;;;;5.65;1.85;;;18.00;82.60;;;;;;4990034;28;20033;-61
2022/05/31 07:05:13;;;;;;;3.33;1.60;;;17.70;81.50;;;;;;4985169;28;20114;-60
2022/05/31 07:07:40;;;;;;;3.00;1.50;;;17.20;83.50;;;;;;4987936;28;20084;-58
2022/05/31 07:10:08;;;;;;;5.25;1.70;;;17.00;87.20;;;;;;4988629;28;20085;-62
2022/05/31 07:12:35;;;;;;;3.47;1.85;;;17.50;84.60;;;;;;4987246;28;20539;-62
2022/05/31 07:15:01;;;;;;;5.97;1.75;;;17.70;85.10;;;;;;4977080;28;20149;-61
2022/05/31 07:17:27;;;;;;;6.95;2.25;;;18.10;84.00;;;;;;5004303;28;20121;-60
2022/05/31 07:19:52;;;;;;;6.57;1.88;;;18.10;84.20;;;;;;5005991;28;20087;-61
2022/05/31 07:22:18;;;;;;;8.95;1.60;;;18.10;84.50;;;;;;5008906;28;20029;-61
2022/05/31 07:24:44;;;;;;;5.10;1.50;;;18.60;83.10;;;;;;5007089;28;20096;-62
2022/05/31 07:27:10;;;;;;;2.28;1.40;;;19.00;83.40;;;;;;5006324;28;20030;-61
2022/05/31 07:29:36;;;;;;;8.00;1.90;;;19.30;81.20;;;;;;4999418;28;20498;-61
2022/05/31 07:32:02;;;;;;;4.50;1.85;;;18.80;83.30;;;;;;5004661;28;20264;-61
2022/05/31 07:34:28;;;;;;;4.43;1.60;;;17.80;83.30;;;;;;4997202;28;20060;-60
2022/05/31 07:36:53;;;;;;;2.80;1.85;;;17.50;84.70;;;;;;5003993;28;20124;-61
2022/05/31 07:39:21;;;;;;;5.55;1.70;;;17.10;88.20;;;;;;4999632;28;20109;-61
2022/05/31 07:41:47;;;;;;;5.32;1.80;;;17.00;90.00;;;;;;4999102;28;20030;-60
2022/05/31 07:44:14;;;;;;;4.88;1.85;;;16.70;90.10;;;;;;5000240;28;20038;-60
2022/05/31 07:46:40;;;;;;;6.45;2.28;;;16.70;90.70;;;;;;5002873;28;20502;-61
2022/05/31 07:49:06;;;;;;;5.82;2.05;;;16.70;91.10;;;;;;5002201;28;20034;-61
2022/05/31 07:51:32;;;;;;;4.13;1.67;;;16.70;92.10;;;;;;5006330;28;20038;-61
2022/05/31 07:53:57;;;;;;;7.80;2.17;;;16.90;91.90;;;;;;5004476;28;20037;-60
2022/05/31 07:56:23;;;;;;;6.68;2.00;;;16.60;91.00;;;;;;5002826;28;20404;-61
2022/05/31 07:58:49;;;;;;;4.22;1.80;;;16.40;90.40;;;;;;5001332;28;20022;-60
2022/05/31 08:01:17;;;;;;;4.75;1.88;;;16.40;91.00;;;;;;5002815;28;20472;-61
2022/05/31 08:03:44;;;;;;;3.85;1.73;;;16.20;91.80;;;;;;5002296;28;20654;-60
2022/05/31 08:06:19;;;;;;;3.25;1.75;;;16.10;93.20;;;;;;5006150;28;20553;-61
2022/05/31 08:08:45;;;;;;;4.28;2.13;;;16.10;92.10;;;;;;4998660;28;20105;-60
2022/05/31 08:11:26;;;;;;;5.03;2.42;;;15.90;93.20;;;;;;4999394;28;20126;-60
2022/05/31 08:13:53;;;;;;;3.30;1.90;;;15.70;92.90;;;;;;4999782;28;20018;-61
2022/05/31 08:16:21;;;;;;;4.15;1.83;;;15.50;93.40;;;;;;4968387;28;20042;-61
2022/05/31 08:18:48;;;;;;;5.25;1.98;;;15.30;93.80;;;;;;4988021;28;20034;-61
2022/05/31 08:21:19;;;;;;;9.02;1.67;;;15.10;94.20;;;;;;4987950;28;20101;-61
2022/05/31 08:23:44;;;;;;;4.03;2.00;;;15.10;94.20;;;;;;4986473;28;20050;-60
2022/05/31 08:26:11;;;;;;;4.07;3.05;;;15.20;94.50;;;;;;4978829;28;20496;-61
2022/05/31 08:28:37;;;;;;;4.03;1.85;;;15.20;94.60;;;;;;4981545;28;20040;-61
2022/05/31 08:31:06;;;;;;;4.10;1.63;;;15.30;93.50;;;;;;4980964;28;20098;-61
2022/05/31 08:33:31;;;;;;;3.13;2.20;;;15.30;93.00;;;;;;4980899;28;20026;-61
2022/05/31 08:35:58;;;;;;;4.05;2.08;;;15.40;93.10;;;;;;4984928;28;20451;-59
2022/05/31 08:38:23;;;;;;;3.03;1.95;;;15.30;94.00;;;;;;4983951;28;20033;-60
2022/05/31 08:41:01;;;;;;;6.43;1.58;;;15.20;93.90;;;;;;4984022;28;20022;-60
2022/05/31 08:43:50;;;;;;;4.60;1.90;;;15.10;94.60;;;;;;4979831;28;20022;-61
2022/05/31 08:46:58;;;;;;;5.63;2.00;;;15.00;95.20;;;;;;4984594;28;20034;-59
2022/05/31 08:52:42;;;;;;;7.97;1.92;;;14.90;95.00;;;;;;4986334;28;20085;-61
2022/05/31 08:58:07;;;;;;;4.80;2.05;;;14.90;95.60;;;;;;4980206;28;20526;-61
2022/05/31 09:00:38;;;;;;;3.22;2.00;;;14.70;96.10;;;;;;4983263;28;20117;-60
2022/05/31 09:03:23;;;;;;;8.98;2.40;;;14.60;97.20;;;;;;4989174;28;20034;-60
2022/05/31 09:05:57;;;;;;;3.10;2.03;;;14.60;97.90;;;;;;4981265;28;20049;-61
2022/05/31 09:08:25;;;;;;;;;;;14.60;97.60;;;;;;4985662;28;20026;-60
2022/05/31 09:11:07;;;;;;;6.28;2.05;;;14.50;99.30;;;;;;4982593;28;19960;-57
2022/05/31 09:13:40;;;;;;;4.05;2.08;;;14.50;99.80;;;;;;4983879;28;20031;-61
2022/05/31 09:16:24;;;;;;;9.60;1.63;;;14.60;99.00;;;;;;4972322;28;20078;-60
2022/05/31 09:19:00;;;;;;;4.10;1.83;;;14.50;99.10;;;;;;4988986;28;20094;-61
2022/05/31 09:21:34;;;;;;;4.50;1.63;;;14.50;99.90;;;;;;4976506;28;20062;-60
2022/05/31 09:24:00;;;;;;;4.20;1.80;;;14.60;99.90;;;;;;4980957;28;20057;-61
2022/05/31 09:27:02;;;;;;;6.47;2.53;;;14.60;99.90;;;;;;4985233;28;20500;-60
2022/05/31 09:30:01;;;;;;;3.70;2.08;;;14.80;99.90;;;;;;4990752;28;20037;-61
2022/05/31 09:32:58;;;;;;;5.95;2.70;;;15.10;99.90;;;;;;4990179;28;20026;-60
2022/05/31 09:35:48;;;;;;;6.50;2.65;;;15.10;99.90;;;;;;4989175;28;20038;-61
2022/05/31 09:38:42;;;;;;;4.75;3.30;;;15.20;99.90;;;;;;4991290;28;20142;-61
2022/05/31 09:41:44;;;;;;;9.80;3.70;;;15.60;98.30;;;;;;4985114;28;20037;-60
2022/05/31 09:44:43;;;;;;;10.93;5.03;;;16.10;97.80;;;;;;4985069;28;20046;-59
2022/05/31 09:47:19;;;;;;;8.40;3.38;;;16.40;97.00;;;;;;4986080;28;20031;-61
2022/05/31 09:49:48;;;;;;;9.27;3.63;;;16.80;96.90;;;;;;4988474;28;20663;-61
2022/05/31 09:52:30;;;;;;;7.63;2.80;;;17.10;96.30;;;;;;4981404;28;20031;-61
2022/05/31 09:58:08;;;;;;;4.80;2.20;;;18.00;96.20;;;;;;4990265;28;20110;-61
2022/05/31 10:00:54;;;;;;;4.82;2.00;;;18.10;93.40;;;;;;4988870;28;20022;-61
2022/05/31 10:03:19;;;;;;;5.13;2.15;;;18.10;93.00;;;;;;4988276;28;21527;-60
2022/05/31 10:05:45;;;;;;;3.65;1.90;;;17.90;93.00;;;;;;4988495;28;20035;-61
2022/05/31 10:08:32;;;;;;;6.10;2.45;;;17.30;95.20;;;;;;4985183;28;20018;-59
2022/05/31 10:11:04;;;;;;;5.43;2.58;;;17.00;96.30;;;;;;4989170;28;20101;-61
2022/05/31 10:13:35;;;;;;;5.93;2.33;;;16.90;98.30;;;;;;4992599;28;20410;-60
2022/05/31 10:16:22;;;;;;;4.68;3.13;;;17.00;95.80;;;;;;4973608;28;20051;-61
2022/05/31 10:19:01;;;;;;;4.40;2.47;;;17.50;96.70;;;;;;5005488;28;20022;-61
2022/05/31 10:21:38;;;;;;;6.95;1.98;;;18.10;94.30;;;;;;5010579;28;20387;-61
2022/05/31 10:24:05;;;;;;;4.10;1.80;;;18.20;96.00;;;;;;5000789;28;20030;-60
2022/05/31 10:26:37;;;;;;;5.15;2.13;;;18.60;91.80;;;;;;5009995;28;20034;-61
2022/05/31 10:29:33;;;;;;;5.70;2.45;;;18.50;94.00;;;;;;5019581;28;20021;-61
2022/05/31 10:31:59;;;;;;;3.40;2.03;;;18.50;96.30;;;;;;5002732;28;20034;-59
2022/05/31 10:34:35;;;;;;;7.60;2.90;;;18.70;93.20;;;;;;5009604;28;20025;-59
2022/05/31 10:37:03;;;;;;;7.90;1.95;;;18.70;92.90;;;;;;4999928;28;20809;-60
2022/05/31 10:39:34;;;;;;;2.80;2.03;;;18.90;92.90;;;;;;5002042;28;21403;-60
2022/05/31 10:42:02;;;;;;;4.35;1.58;;;19.30;91.10;;;;;;5002828;28;20023;-61
2022/05/31 10:44:44;;;;;;;4.50;1.60;;;19.40;91.70;;;;;;5005270;28;20037;-60
2022/05/31 10:47:13;;;;;;;3.30;1.60;;;19.60;88.50;;;;;;5005684;28;20030;-61
2022/05/31 10:49:41;;;;;;;2.03;1.55;;;19.60;91.40;;;;;;5004602;28;20038;-58
2022/05/31 10:52:07;;;;;;;2.72;1.48;;;19.80;90.00;;;;;;5008960;28;20042;-60
2022/05/31 10:54:54;;;;;;;2.80;1.60;;;19.80;88.20;;;;;;5017311;28;20033;-61
2022/05/31 10:57:53;;;;;;;3.47;1.30;;;19.80;84.50;;;;;;5000379;28;20088;-60
2022/05/31 11:00:37;;;;;;;3.35;1.95;;;20.00;82.60;;;;;;5010963;28;20018;-60
2022/05/31 11:03:08;;;;;;;1.70;1.08;;;20.00;83.10;;;;;;5007307;28;20368;-60
2022/05/31 11:05:52;;;;;;;4.30;1.58;;;19.90;78.30;;;;;;5012207;28;20037;-60
2022/05/31 11:11:41;;;;;;;5.38;1.30;;;20.40;77.30;;;;;;5004332;28;20033;-60
2022/05/31 11:14:36;;;;;;;4.15;2.45;;;20.10;80.20;;;;;;5002494;28;20110;-59
2022/05/31 11:17:07;;;;;;;5.15;1.35;;;19.60;82.60;;;;;;4969436;28;20137;-61
2022/05/31 11:19:50;;;;;;;4.53;1.42;;;19.70;81.80;;;;;;4989932;28;20035;-61
2022/05/31 11:22:45;;;;;;;1.50;1.00;;;19.80;81.50;;;;;;4986951;28;20030;-60
2022/05/31 11:25:36;;;;;;;2.33;1.20;;;19.60;83.80;;;;;;4988783;28;20058;-60
2022/05/31 11:28:26;;;;;;;1.95;1.00;;;19.90;80.60;;;;;;4986788;28;20105;-60
2022/05/31 11:31:28;;;;;;;2.63;1.00;;;19.80;80.80;;;;;;4985540;28;20027;-61
2022/05/31 11:34:12;;;;;;;2.78;1.10;;;19.80;78.70;;;;;;4988838;28;20037;-59
2022/05/31 11:37:05;;;;;;;2.00;1.13;;;19.70;80.00;;;;;;4989272;28;20101;-60
2022/05/31 11:40:07;;;;;;;4.03;1.52;;;19.50;82.50;;;;;;4987411;28;20027;-60
2022/05/31 11:42:44;;;;;;;4.18;1.20;;;19.30;84.70;;;;;;4986234;28;20605;-60
2022/05/31 11:45:43;;;;;;;3.72;1.63;;;19.20;83.20;;;;;;4984613;28;20555;-60
2022/05/31 11:48:27;;;;;;;2.00;1.20;;;19.10;85.80;;;;;;4979436;28;20026;-60
2022/05/31 11:51:07;;;;;;;6.25;1.40;;;19.00;83.40;;;;;;4987609;28;20032;-59
2022/05/31 11:53:59;;;;;;;2.25;1.30;;;19.00;85.20;;;;;;4988315;28;20030;-59
2022/05/31 11:56:33;;;;;;;2.05;1.23;;;19.30;84.70;;;;;;4987105;28;20058;-61
2022/05/31 11:59:17;;;;;;;4.05;1.23;;;19.60;82.00;;;;;;4986535;28;20170;-61
2022/05/31 12:01:53;;;;;;;1.73;1.35;;;19.60;79.80;;;;;;4980768;28;20030;-60
2022/05/31 12:04:29;;;;;;;3.20;1.30;;;19.60;80.10;;;;;;4980032;28;20031;-60
2022/05/31 12:07:20;;;;;;;2.75;1.40;;;19.30;80.70;;;;;;4979935;28;20034;-61
2022/05/31 12:10:17;;;;;;;2.47;1.52;;;19.20;83.20;;;;;;4981227;28;20127;-61
2022/05/31 12:12:44;;;;;;;7.07;1.90;;;19.50;85.00;;;;;;4984375;28;20043;-61
2022/05/31 12:15:28;;;;;;;3.72;1.70;;;19.50;83.90;;;;;;4972322;28;20634;-61
2022/05/31 12:18:13;;;;;;;;;;;19.40;81.70;;;;;;4995967;28;20031;-61
2022/05/31 12:20:44;;;;;;;3.60;1.80;;;19.50;85.80;;;;;;5004535;28;19913;-60
2022/05/31 12:23:32;;;;;;;2.55;1.50;;;19.60;84.50;;;;;;5000384;28;20040;-60
2022/05/31 12:25:59;;;;;;;4.15;1.75;;;19.60;84.10;;;;;;5000389;28;20034;-61
2022/05/31 12:28:44;;;;;;;5.97;1.77;;;19.70;84.40;;;;;;4994928;28;20500;-59
2022/05/31 12:31:23;;;;;;;3.70;1.55;;;20.20;85.10;;;;;;4997873;28;20068;-61
2022/05/31 12:33:49;;;;;;;2.65;1.10;;;20.50;84.10;;;;;;5000272;28;20109;-60
2022/05/31 12:36:16;;;;;;;2.40;1.23;;;21.00;82.00;;;;;;4996850;28;20176;-60
2022/05/31 12:39:08;;;;;;;3.47;1.40;;;21.30;81.40;;;;;;4999790;28;20040;-61
2022/05/31 12:41:42;;;;;;;2.35;1.83;;;21.30;81.90;;;;;;4996045;28;20830;-60
2022/05/31 12:44:30;;;;;;;2.58;1.75;;;21.00;80.20;;;;;;4995694;28;20083;-59
2022/05/31 12:47:13;;;;;;;2.47;1.40;;;21.10;79.90;;;;;;4998532;28;20057;-61
2022/05/31 12:49:51;;;;;;;5.28;1.60;;;21.30;79.60;;;;;;4995398;28;20026;-58
2022/05/31 12:55:01;;;;;;;3.70;1.70;;;20.40;79.10;;;;;;5005837;28;20125;-61
2022/05/31 12:57:30;;;;;;;2.95;1.50;;;20.40;81.00;;;;;;5001574;28;20034;-60
2022/05/31 12:59:56;;;;;;;4.45;2.00;;;20.30;80.90;;;;;;5005185;28;20030;-60
2022/05/31 13:02:34;;;;;;;3.25;2.00;;;19.90;83.90;;;;;;5001302;28;20026;-61
2022/05/31 13:05:06;;;;;;;5.65;2.13;;;19.60;83.80;;;;;;5002271;28;20030;-54
2022/05/31 13:07:44;;;;;;;3.00;1.70;;;19.70;81.80;;;;;;5015807;28;20585;-60
2022/05/31 13:10:30;;;;;;;5.30;1.83;;;19.50;82.70;;;;;;5004291;28;20029;-60
2022/05/31 13:21:17;;;;;;;4.78;2.28;;;20.20;78.30;;;;;;4981947;28;20038;-61
2022/05/31 13:23:42;;;;;;;4.25;1.65;;;20.40;79.10;;;;;;4980371;28;20385;-59
2022/05/31 13:26:23;;;;;;;4.40;1.70;;;20.40;77.00;;;;;;4979999;28;20035;-61
2022/05/31 13:29:04;;;;;;;4.78;2.47;;;20.60;78.10;;;;;;4984840;28;20175;-61
2022/05/31 13:31:37;;;;;;;9.07;1.45;;;20.30;76.60;;;;;;4992797;28;20027;-61
2022/05/31 13:34:08;;;;;;;2.72;1.45;;;20.20;72.40;;;;;;4988545;28;20069;-61
2022/05/31 13:36:42;;;;;;;2.42;1.50;;;19.70;75.70;;;;;;4986616;28;20066;-61
2022/05/31 13:39:11;;;;;;;5.55;1.67;;;19.50;78.30;;;;;;4992005;28;20046;-58
2022/05/31 13:41:55;;;;;;;4.38;1.58;;;19.50;80.30;;;;;;4988275;28;20045;-61
2022/05/31 13:44:34;;;;;;;2.90;1.98;;;19.60;76.50;;;;;;4986351;28;20022;-61
2022/05/31 13:47:03;;;;;;;4.75;1.70;;;20.10;76.10;;;;;;4984608;28;20078;-62
2022/05/31 13:49:44;;;;;;;7.63;4.10;;;20.50;76.10;;;;;;4991801;28;20041;-61